Time;durP1;ratioP1;P1;durP2;ratioP2;P2;SDS_P1;SDS_P2;PMS_P1;PMS_P2;Temp;Humidity;BMP_temperature;BMP_pressure;BME280_temperature;BME280_humidity;BME280_pressure;Samples;Min_cycle;Max_cycle;Signal;HPM_P1;HPM_P2
2021/08/26 00:08:30;;;;;;;11.75;6.75;;;;;;;14.85;100.00;100331.88;5036109;28;20064;-67
2021/08/26 00:11:19;;;;;;;12.32;6.75;;;;;;;14.84;100.00;100327.50;5035071;28;20053;-66
2021/08/26 00:14:05;;;;;;;9.85;6.95;;;;;;;14.81;100.00;100328.66;5035113;28;20048;-66
2021/08/26 00:16:49;;;;;;;9.07;6.82;;;;;;;14.74;100.00;100327.69;5034925;28;20044;-67
2021/08/26 00:19:33;;;;;;;13.20;8.10;;;;;;;14.72;100.00;100326.19;5034713;28;20052;-67
2021/08/26 00:22:17;;;;;;;9.30;7.30;;;;;;;14.69;100.00;100323.84;5035603;28;20514;-66
2021/08/26 00:25:02;;;;;;;14.43;7.70;;;;;;;14.64;100.00;100316.31;5035111;28;20160;-67
2021/08/26 00:27:46;;;;;;;11.32;7.97;;;;;;;14.62;100.00;100312.09;5035803;28;20515;-67
2021/08/26 00:30:30;;;;;;;11.60;8.45;;;;;;;14.58;100.00;100318.81;5035580;28;20088;-66
2021/08/26 00:33:15;;;;;;;13.05;9.13;;;;;;;14.54;100.00;100320.16;5049057;28;20515;-67
2021/08/26 00:35:59;;;;;;;12.32;7.78;;;;;;;14.50;100.00;100313.44;5034428;28;20060;-66
2021/08/26 00:38:45;;;;;;;12.15;8.45;;;;;;;14.47;100.00;100324.53;5048635;28;20427;-66
2021/08/26 00:41:29;;;;;;;12.05;7.45;;;;;;;14.43;100.00;100321.34;5034417;28;20052;-67
2021/08/26 00:44:13;;;;;;;10.95;7.65;;;;;;;14.45;100.00;100326.50;5048645;28;20503;-66
2021/08/26 00:46:57;;;;;;;11.52;6.97;;;;;;;14.43;100.00;100323.16;5035078;28;20043;-66
2021/08/26 00:49:41;;;;;;;;;;;;;;;14.41;100.00;100317.13;5035534;28;20103;-66
2021/08/26 00:52:25;;;;;;;10.30;7.30;;;;;;;14.38;100.00;100312.94;5034122;28;19920;-66
2021/08/26 00:55:09;;;;;;;;;;;;;;;14.36;100.00;100314.94;5034495;28;20325;-67
2021/08/26 00:57:54;;;;;;;12.02;7.10;;;;;;;14.33;100.00;100317.97;5048312;28;19921;-67
2021/08/26 01:00:51;;;;;;;9.98;8.18;;;;;;;14.29;100.00;100313.13;5033725;28;20072;-67
2021/08/26 01:03:46;;;;;;;11.02;6.80;;;;;;;14.26;100.00;100308.09;5033891;28;20080;-66
2021/08/26 01:06:35;;;;;;;11.90;7.07;;;;;;;14.24;100.00;100308.25;5034960;28;20050;-66
2021/08/26 01:09:21;;;;;;;11.82;7.20;;;;;;;14.22;100.00;100294.19;5034320;28;20578;-67
2021/08/26 01:12:05;;;;;;;13.40;7.75;;;;;;;14.21;100.00;100291.66;5033664;28;20048;-67
2021/08/26 01:14:50;;;;;;;11.40;7.70;;;;;;;14.29;100.00;100294.34;5033875;28;20052;-67
2021/08/26 01:17:34;;;;;;;11.68;7.60;;;;;;;14.24;100.00;100294.00;5033910;28;20060;-66
2021/08/26 01:20:19;;;;;;;13.50;8.43;;;;;;;14.19;100.00;100288.31;5033638;28;20057;-68
2021/08/26 01:23:03;;;;;;;12.73;7.47;;;;;;;14.13;100.00;100284.41;5033789;28;20515;-67
2021/08/26 01:25:48;;;;;;;15.88;8.70;;;;;;;14.13;100.00;100283.56;5033669;28;20067;-66
2021/08/26 01:28:41;;;;;;;9.35;7.63;;;;;;;14.09;100.00;100288.41;5033495;28;20107;-67
2021/08/26 01:31:25;;;;;;;13.07;8.50;;;;;;;14.06;100.00;100282.56;5033745;28;20470;-67
2021/08/26 01:34:09;;;;;;;12.38;8.82;;;;;;;14.06;100.00;100282.56;5034536;28;20044;-67
2021/08/26 01:36:53;;;;;;;9.70;7.90;;;;;;;14.02;100.00;100283.88;5033228;28;20107;-67
2021/08/26 01:39:51;;;;;;;10.77;8.13;;;;;;;13.96;100.00;100281.88;5034392;28;20064;-68
2021/08/26 01:42:35;;;;;;;13.27;9.30;;;;;;;13.94;100.00;100278.50;5033252;28;20056;-67
2021/08/26 01:45:19;;;;;;;13.30;9.25;;;;;;;13.91;100.00;100285.06;5033079;28;20092;-66
2021/08/26 01:48:03;;;;;;;11.88;7.43;;;;;;;13.88;100.00;100279.19;5034341;28;20052;-67
2021/08/26 01:50:49;;;;;;;10.93;7.25;;;;;;;13.88;100.00;100279.19;5034174;28;20451;-67
2021/08/26 01:53:33;;;;;;;11.82;7.15;;;;;;;13.88;100.00;100279.19;5033184;28;20044;-66
2021/08/26 01:56:16;;;;;;;15.32;10.10;;;;;;;13.88;100.00;100279.19;5032828;28;20040;-67
2021/08/26 01:59:00;;;;;;;9.73;7.30;;;;;;;13.87;100.00;100277.50;5033964;28;20403;-67
2021/08/26 02:01:44;;;;;;;12.48;9.02;;;;;;;13.86;100.00;100281.19;5032652;28;20084;-67
2021/08/26 02:04:28;;;;;;;8.90;7.18;;;;;;;13.86;100.00;100286.56;5033951;28;20048;-67
2021/08/26 02:07:13;;;;;;;18.58;10.20;;;;;;;13.86;100.00;100283.88;5033834;28;20511;-69
2021/08/26 02:09:57;;;;;;;19.80;10.85;;;;;;;13.85;100.00;100292.88;5032664;28;20469;-68
2021/08/26 02:12:41;;;;;;;12.57;9.00;;;;;;;13.86;100.00;100294.59;5033712;28;20486;-68
2021/08/26 02:15:25;;;;;;;12.23;8.90;;;;;;;13.89;100.00;100292.41;5033854;28;20115;-66
2021/08/26 02:18:09;;;;;;;10.02;8.23;;;;;;;13.85;100.00;100290.22;5046825;28;20130;-68
2021/08/26 02:20:53;;;;;;;15.10;9.00;;;;;;;13.82;100.00;100279.84;5018661;28;20063;-67
2021/08/26 02:23:37;;;;;;;14.13;9.95;;;;;;;13.84;100.00;100275.13;5033401;28;20095;-66
2021/08/26 02:26:21;;;;;;;15.77;8.82;;;;;;;13.87;100.00;100266.78;5032362;28;20107;-67
2021/08/26 02:29:05;;;;;;;14.68;8.02;;;;;;;13.88;100.00;100257.75;5032545;28;20048;-67
2021/08/26 02:31:49;;;;;;;14.80;9.05;;;;;;;13.90;100.00;100251.22;5032452;28;20514;-67
2021/08/26 02:34:33;;;;;;;13.85;9.88;;;;;;;13.95;100.00;100248.88;5033576;28;20511;-65
2021/08/26 02:37:17;;;;;;;17.80;10.43;;;;;;;14.04;100.00;100241.66;5032452;28;20103;-67
2021/08/26 02:40:02;;;;;;;15.80;10.20;;;;;;;14.07;100.00;100242.19;5046642;28;20136;-67
2021/08/26 02:42:46;;;;;;;16.17;11.18;;;;;;;14.17;100.00;100239.38;5032291;28;20052;-67
2021/08/26 02:45:30;;;;;;;17.00;10.85;;;;;;;14.22;100.00;100228.97;5033343;28;20525;-66
2021/08/26 02:48:14;;;;;;;14.90;9.68;;;;;;;14.27;100.00;100226.63;5032419;28;20047;-69
2021/08/26 02:50:58;;;;;;;18.02;10.68;;;;;;;14.25;100.00;100224.13;5032246;28;20056;-68
2021/08/26 02:53:41;;;;;;;12.65;10.00;;;;;;;14.37;100.00;100233.50;5032373;28;20048;-68
2021/08/26 02:56:25;;;;;;;17.98;10.70;;;;;;;14.42;100.00;100230.31;5032977;28;20053;-68
2021/08/26 02:59:09;;;;;;;16.92;10.18;;;;;;;14.33;100.00;100212.53;5032034;28;20051;-68
2021/08/26 03:01:53;;;;;;;19.85;10.55;;;;;;;14.33;100.00;100215.22;5031934;28;20416;-68
2021/08/26 03:04:37;;;;;;;14.75;10.02;;;;;;;14.36;100.00;100209.50;5033171;28;20464;-67
2021/08/26 03:07:21;;;;;;;13.75;9.88;;;;;;;14.42;100.00;100214.22;5045912;28;20060;-68
2021/08/26 03:10:05;;;;;;;17.98;9.90;;;;;;;14.44;100.00;100206.81;5036182;28;20049;-68
2021/08/26 03:12:49;;;;;;;16.85;10.75;;;;;;;14.45;100.00;100212.03;5021969;28;20048;-68
2021/08/26 03:15:33;;;;;;;13.55;9.57;;;;;;;14.44;100.00;100217.56;5036880;28;20087;-68
2021/08/26 03:18:17;;;;;;;17.15;10.68;;;;;;;14.47;100.00;100212.69;5037096;28;20049;-68
2021/08/26 03:21:01;;;;;;;13.00;9.45;;;;;;;14.51;100.00;100205.16;5035756;28;20408;-68
2021/08/26 03:23:45;;;;;;;13.68;9.68;;;;;;;14.44;100.00;100207.66;5035889;28;20438;-69
2021/08/26 03:26:29;;;;;;;16.83;10.15;;;;;;;14.43;100.00;100205.16;5035850;28;20057;-68
2021/08/26 03:29:13;;;;;;;13.13;9.70;;;;;;;14.43;100.00;100205.16;5050031;28;20102;-68
2021/08/26 03:31:57;;;;;;;16.05;10.35;;;;;;;14.44;100.00;100209.50;5036670;28;20107;-68
2021/08/26 03:34:41;;;;;;;13.20;9.57;;;;;;;14.43;100.00;100211.38;5036750;28;20080;-68
2021/08/26 03:37:25;;;;;;;13.88;8.93;;;;;;;14.42;100.00;100208.84;5035531;28;20099;-67
2021/08/26 03:40:10;;;;;;;14.35;9.65;;;;;;;14.41;100.00;100213.38;5035655;28;20156;-68
2021/08/26 03:42:54;;;;;;;11.27;9.00;;;;;;;14.40;100.00;100200.13;5049623;28;20451;-68
2021/08/26 03:45:38;;;;;;;13.75;9.70;;;;;;;14.34;100.00;100207.03;5036548;28;20108;-68
2021/08/26 03:48:22;;;;;;;15.95;8.52;;;;;;;14.34;100.00;100196.28;5049404;28;20175;-68
2021/08/26 03:51:06;;;;;;;16.92;8.85;;;;;;;14.30;100.00;100205.66;5049478;28;20060;-68
2021/08/26 03:53:50;;;;;;;14.32;8.48;;;;;;;14.23;100.00;100201.16;5035483;28;20107;-69
2021/08/26 03:56:34;;;;;;;13.48;9.75;;;;;;;14.14;100.00;100202.13;5035395;28;20132;-68
2021/08/26 03:59:18;;;;;;;10.50;8.20;;;;;;;14.09;100.00;100193.78;5021046;28;20080;-68
2021/08/26 04:02:02;;;;;;;14.27;8.80;;;;;;;14.04;100.00;100202.31;5036018;28;20519;-68
2021/08/26 04:04:46;;;;;;;13.40;9.02;;;;;;;14.00;100.00;100192.94;5036505;28;20131;-68
2021/08/26 04:07:31;;;;;;;13.25;8.75;;;;;;;13.99;100.00;100195.78;5035099;28;20407;-68
2021/08/26 04:10:15;;;;;;;13.60;8.88;;;;;;;13.97;100.00;100203.16;5035363;28;20660;-68
2021/08/26 04:12:59;;;;;;;12.80;8.50;;;;;;;13.95;100.00;100210.50;5036083;28;20111;-68
2021/08/26 04:15:43;;;;;;;14.27;10.32;;;;;;;13.92;100.00;100203.66;5048946;28;20052;-68
2021/08/26 04:18:27;;;;;;;15.93;10.40;;;;;;;13.94;100.00;100198.97;5035005;28;20515;-68
2021/08/26 04:21:11;;;;;;;12.93;9.02;;;;;;;13.89;100.00;100206.66;5034058;28;20075;-68
2021/08/26 04:23:55;;;;;;;15.30;10.48;;;;;;;13.98;100.00;100191.44;5034848;28;20127;-67
2021/08/26 04:26:38;;;;;;;14.73;10.18;;;;;;;14.04;100.00;100186.22;5035816;28;20115;-68
2021/08/26 04:29:22;;;;;;;14.15;10.20;;;;;;;14.04;100.00;100180.88;5034562;28;20052;-68
2021/08/26 04:32:06;;;;;;;13.82;11.30;;;;;;;14.04;100.00;100183.56;5034670;28;20072;-69
2021/08/26 04:34:50;;;;;;;16.52;11.77;;;;;;;13.96;100.00;100185.41;5034726;28;20477;-69
2021/08/26 04:37:34;;;;;;;13.43;10.02;;;;;;;13.99;100.00;100188.56;5034768;28;20044;-68
2021/08/26 04:40:18;;;;;;;17.25;11.02;;;;;;;13.98;100.00;100194.94;5034640;28;20049;-68
2021/08/26 04:43:02;;;;;;;17.42;11.45;;;;;;;13.98;100.00;100194.09;5034307;28;20176;-68
2021/08/26 04:45:46;;;;;;;16.13;9.82;;;;;;;14.00;100.00;100202.81;5034147;28;20048;-68
2021/08/26 04:48:30;;;;;;;18.23;11.02;;;;;;;14.00;100.00;100198.31;5035118;28;20133;-68
2021/08/26 04:51:14;;;;;;;12.77;10.45;;;;;;;14.04;100.00;100191.59;5035078;28;20044;-68
2021/08/26 04:53:58;;;;;;;18.88;11.20;;;;;;;13.98;100.00;100183.38;5034255;28;20068;-64
2021/08/26 04:56:42;;;;;;;16.08;10.82;;;;;;;13.99;100.00;100195.78;5035279;28;20048;-68
2021/08/26 04:59:26;;;;;;;13.52;9.70;;;;;;;14.02;100.00;100206.16;5034212;28;20052;-68
2021/08/26 05:02:10;;;;;;;15.05;10.15;;;;;;;14.06;100.00;100207.50;5156168;22;20057;-69
2021/08/26 05:04:54;;;;;;;13.82;9.73;;;;;;;14.05;100.00;100213.84;5047891;28;20049;-69
2021/08/26 05:07:38;;;;;;;12.18;9.40;;;;;;;14.15;100.00;100206.47;5033675;28;20052;-70
2021/08/26 05:10:21;;;;;;;14.43;9.68;;;;;;;14.14;100.00;100205.66;5034854;28;20100;-70
2021/08/26 05:13:09;;;;;;;22.75;10.55;;;;;;;14.20;100.00;100215.72;5033856;28;20056;-70
2021/08/26 05:15:53;;;;;;;17.20;9.70;;;;;;;14.21;100.00;100200.50;5034765;28;20052;-70
2021/08/26 05:18:36;;;;;;;14.95;10.73;;;;;;;14.21;100.00;100200.50;5033839;28;20043;-70
2021/08/26 05:21:20;;;;;;;15.63;9.73;;;;;;;14.16;100.00;100209.00;5033678;28;20048;-69
2021/08/26 05:24:04;;;;;;;11.52;8.98;;;;;;;14.20;100.00;100201.50;5033433;28;20412;-70
2021/08/26 05:26:48;;;;;;;15.95;9.73;;;;;;;14.23;100.00;100198.47;5033552;28;20044;-70
2021/08/26 05:29:32;;;;;;;12.55;9.38;;;;;;;14.22;100.00;100199.47;5033335;28;20633;-70
2021/08/26 05:32:16;;;;;;;13.25;9.20;;;;;;;14.27;100.00;100202.50;5033385;28;20091;-70
2021/08/26 05:35:00;;;;;;;13.10;9.40;;;;;;;14.18;100.00;100198.16;5019514;28;20553;-70
2021/08/26 05:37:44;;;;;;;14.70;8.95;;;;;;;14.19;100.00;100195.28;5033114;28;20522;-70
2021/08/26 05:40:28;;;;;;;12.63;9.65;;;;;;;14.21;100.00;100197.81;5033459;28;20118;-70
2021/08/26 05:43:12;;;;;;;13.20;9.30;;;;;;;14.27;100.00;100203.31;5034249;28;20140;-70
2021/08/26 05:45:56;;;;;;;12.43;8.98;;;;;;;14.24;100.00;100201.00;5033035;28;20139;-69
2021/08/26 05:48:39;;;;;;;13.85;9.50;;;;;;;14.21;100.00;100200.50;5033453;28;20180;-70
2021/08/26 05:51:23;;;;;;;14.73;9.30;;;;;;;14.33;100.00;100209.84;5033346;28;20187;-70
2021/08/26 05:54:07;;;;;;;14.32;9.90;;;;;;;14.35;100.00;100207.84;5033102;28;20124;-70
2021/08/26 05:56:51;;;;;;;14.02;8.60;;;;;;;14.44;100.00;100202.31;5032997;28;20103;-69
2021/08/26 05:59:35;;;;;;;11.70;9.13;;;;;;;14.43;100.00;100199.78;5033032;28;20136;-70
2021/08/26 06:02:19;;;;;;;11.23;8.80;;;;;;;14.56;100.00;100205.44;5032548;28;20186;-70
2021/08/26 06:05:03;;;;;;;17.13;9.38;;;;;;;14.62;100.00;100210.16;5033733;28;20071;-70
2021/08/26 06:07:47;;;;;;;12.07;8.98;;;;;;;14.62;100.00;100211.00;5019159;28;20178;-70
2021/08/26 06:10:31;;;;;;;13.50;9.25;;;;;;;14.63;100.00;100214.50;5018790;28;20098;-70
2021/08/26 06:13:15;;;;;;;14.90;8.65;;;;;;;14.60;100.00;100207.63;5018732;28;20048;-69
2021/08/26 06:15:59;;;;;;;18.17;9.10;;;;;;;14.63;100.00;100217.19;5032677;28;20091;-70
2021/08/26 06:18:43;;;;;;;12.07;8.65;;;;;;;14.70;100.00;100223.56;5032781;28;20095;-70
2021/08/26 06:21:27;;;;;;;10.00;8.32;;;;;;;14.71;100.00;100222.53;5033101;28;20537;-69
2021/08/26 06:24:11;;;;;;;12.18;8.85;;;;;;;14.78;100.00;100224.34;5033363;28;20420;-70
2021/08/26 06:26:58;;;;;;;14.13;7.72;;;;;;;14.75;100.00;100218.50;5032952;28;20463;-70
2021/08/26 06:29:46;;;;;;;16.17;9.30;;;;;;;14.68;100.00;100225.56;5032229;28;20137;-70
2021/08/26 06:32:30;;;;;;;11.90;8.70;;;;;;;14.63;100.00;100222.56;5032503;28;20055;-70
2021/08/26 06:35:13;;;;;;;11.18;8.50;;;;;;;14.68;100.00;100220.22;5032540;28;20067;-70
2021/08/26 06:37:57;;;;;;;14.75;8.48;;;;;;;14.62;100.00;100218.19;5018366;28;20099;-70
2021/08/26 06:40:41;;;;;;;12.02;8.38;;;;;;;14.59;100.00;100219.38;5033451;28;20072;-70
2021/08/26 06:43:25;;;;;;;9.13;7.63;;;;;;;14.62;100.00;100215.50;5031905;28;20115;-69
2021/08/26 06:46:09;;;;;;;11.77;8.32;;;;;;;14.63;100.00;100222.56;5032440;28;20103;-68
2021/08/26 06:48:54;;;;;;;14.15;8.38;;;;;;;14.51;100.00;100223.91;5032339;28;20144;-70
2021/08/26 06:51:38;;;;;;;11.90;8.88;;;;;;;14.64;100.00;100230.44;5018407;28;20045;-69
2021/08/26 06:54:22;;;;;;;11.15;8.10;;;;;;;14.69;100.00;100230.75;5018624;28;20188;-70
2021/08/26 06:57:06;;;;;;;12.00;8.65;;;;;;;14.73;100.00;100233.94;5032262;28;20095;-70
2021/08/26 06:59:50;;;;;;;11.70;8.70;;;;;;;14.72;100.00;100241.16;5032296;28;20124;-69
2021/08/26 07:02:35;;;;;;;13.10;8.45;;;;;;;14.76;100.00;100238.94;5031798;28;20419;-70
2021/08/26 07:05:20;;;;;;;10.40;8.15;;;;;;;14.71;100.00;100242.16;5032165;28;20128;-70
2021/08/26 07:08:05;;;;;;;13.20;8.90;;;;;;;14.83;100.00;100240.81;5032922;28;20447;-70
2021/08/26 07:10:49;;;;;;;14.38;8.98;;;;;;;14.78;100.00;100242.31;5032219;28;20052;-71
2021/08/26 07:13:33;;;;;;;12.95;8.98;;;;;;;14.83;100.00;100239.94;5031857;28;20184;-70
2021/08/26 07:16:17;;;;;;;12.43;8.65;;;;;;;14.89;100.00;100242.78;5031778;28;20056;-70
2021/08/26 07:19:01;;;;;;;11.35;8.63;;;;;;;14.88;100.00;100246.47;5031841;28;20052;-70
2021/08/26 07:21:45;;;;;;;12.43;8.50;;;;;;;14.81;100.00;100247.34;5032774;28;20052;-70
2021/08/26 07:24:29;;;;;;;13.68;9.63;;;;;;;14.88;100.00;100242.97;5018042;28;20502;-68
2021/08/26 07:27:13;;;;;;;11.98;9.23;;;;;;;14.90;100.00;100240.94;5018076;28;20045;-71
2021/08/26 07:29:57;;;;;;;14.20;9.95;;;;;;;14.85;100.00;100244.13;5031822;28;20056;-70
2021/08/26 07:32:40;;;;;;;12.50;10.02;;;;;;;14.96;100.00;100246.47;5017775;28;20554;-70
2021/08/26 07:35:25;;;;;;;14.68;9.63;;;;;;;15.04;100.00;100248.28;5031945;28;20507;-70
2021/08/26 07:38:08;;;;;;;15.65;10.15;;;;;;;15.09;100.00;100249.41;5017940;28;20076;-71
2021/08/26 07:40:52;;;;;;;14.68;10.50;;;;;;;15.10;100.00;100242.22;5032937;28;20053;-70
2021/08/26 07:43:36;;;;;;;17.10;9.88;;;;;;;15.00;100.00;100245.09;5017888;28;20076;-70
2021/08/26 07:46:20;;;;;;;14.32;10.30;;;;;;;15.07;100.00;100248.75;5017682;28;20068;-70
2021/08/26 07:49:05;;;;;;;12.35;10.02;;;;;;;15.04;100.00;100243.75;5017729;28;20118;-70
2021/08/26 07:51:49;;;;;;;14.48;10.88;;;;;;;15.02;100.00;100240.38;5031648;28;20160;-71
2021/08/26 07:54:34;;;;;;;14.85;10.85;;;;;;;15.12;100.00;100242.88;5031471;28;20053;-70
2021/08/26 07:57:18;;;;;;;14.82;10.75;;;;;;;14.97;100.00;100237.38;5035139;28;20107;-70
2021/08/26 08:00:03;;;;;;;14.65;10.75;;;;;;;15.07;100.00;100239.84;5035191;28;20482;-70
2021/08/26 08:02:47;;;;;;;15.65;10.73;;;;;;;15.10;100.00;100242.22;5034842;28;20056;-70
2021/08/26 08:05:31;;;;;;;16.77;11.32;;;;;;;15.01;100.00;100243.25;5035146;28;20052;-71
2021/08/26 08:08:15;;;;;;;13.93;10.63;;;;;;;14.97;100.00;100247.28;5035166;28;20559;-70
2021/08/26 08:10:59;;;;;;;18.85;11.63;;;;;;;14.88;100.00;100245.66;5036026;28;20546;-70
2021/08/26 08:13:43;;;;;;;18.42;12.80;;;;;;;14.97;100.00;100249.97;5034852;28;20067;-71
2021/08/26 08:16:27;;;;;;;15.63;12.25;;;;;;;15.02;100.00;100242.25;5035925;28;20187;-71
2021/08/26 08:19:10;;;;;;;17.52;13.30;;;;;;;15.07;100.00;100245.22;5034980;28;20064;-69
2021/08/26 08:21:54;;;;;;;16.33;12.30;;;;;;;15.18;100.00;100237.66;5034716;28;20163;-70
2021/08/26 08:24:40;;;;;;;15.73;11.32;;;;;;;15.09;100.00;100241.38;5034857;28;20068;-71
2021/08/26 08:27:24;;;;;;;17.65;11.82;;;;;;;15.05;100.00;100244.56;5034772;28;20514;-70
2021/08/26 08:30:09;;;;;;;17.15;11.93;;;;;;;15.24;100.00;100246.84;5020668;28;20059;-69
2021/08/26 08:32:54;;;;;;;16.50;11.95;;;;;;;15.27;100.00;100249.19;5034365;28;20534;-70
2021/08/26 08:35:38;;;;;;;16.27;12.73;;;;;;;15.45;100.00;100249.81;5034892;28;20040;-71
2021/08/26 08:38:23;;;;;;;15.63;12.10;;;;;;;15.40;100.00;100254.88;5020897;28;20561;-71
2021/08/26 08:41:07;;;;;;;15.05;11.20;;;;;;;15.41;100.00;100265.44;5035523;28;20162;-70
2021/08/26 08:43:51;;;;;;;;;;;;;;;15.50;100.00;100263.56;5020826;28;20052;-70
2021/08/26 08:46:35;;;;;;;15.33;11.87;;;;;;;15.54;100.00;100256.81;5020432;28;19959;-72
2021/08/26 08:49:20;;;;;;;15.73;11.45;;;;;;;15.45;100.00;100257.88;5035576;28;20052;-70
2021/08/26 08:52:04;;;;;;;16.95;11.45;;;;;;;15.46;100.00;100263.06;5019963;28;20523;-71
2021/08/26 08:54:48;;;;;;;16.38;11.13;;;;;;;15.39;100.00;100254.03;5034248;28;20059;-71
2021/08/26 08:57:32;;;;;;;11.80;10.02;;;;;;;15.31;100.00;100262.13;5033986;28;20068;-72
2021/08/26 09:00:19;;;;;;;18.85;12.00;;;;;;;15.30;100.00;100260.44;5034219;28;20052;-70
2021/08/26 09:03:04;;;;;;;15.60;11.50;;;;;;;15.48;100.00;100254.81;5033748;28;20052;-70
2021/08/26 09:05:53;;;;;;;18.20;12.52;;;;;;;15.68;100.00;100262.28;5033750;28;20056;-71
2021/08/26 09:08:37;;;;;;;13.13;11.02;;;;;;;15.82;100.00;100259.69;5033815;28;20067;-70
2021/08/26 09:11:21;;;;;;;11.75;10.27;;;;;;;15.87;100.00;100256.47;5034291;28;20076;-71
2021/08/26 09:14:12;;;;;;;12.98;9.32;;;;;;;15.90;100.00;100264.16;5034015;28;20049;-71
2021/08/26 09:16:58;;;;;;;11.48;9.20;;;;;;;15.86;100.00;100260.97;5033545;28;20052;-71
2021/08/26 09:19:43;;;;;;;10.27;8.77;;;;;;;15.88;100.00;100261.63;5033734;28;20530;-70
2021/08/26 09:22:27;;;;;;;10.73;8.55;;;;;;;15.87;100.00;100265.34;5034347;28;20048;-71
2021/08/26 09:25:13;;;;;;;12.40;8.32;;;;;;;15.82;100.00;100272.25;5033703;28;20103;-71
2021/08/26 09:27:57;;;;;;;9.75;8.52;;;;;;;15.74;100.00;100270.47;5033362;28;20099;-71
2021/08/26 09:30:41;;;;;;;10.13;7.72;;;;;;;15.63;100.00;100272.72;5019632;28;20075;-71
2021/08/26 09:33:25;;;;;;;15.10;10.00;;;;;;;15.65;100.00;100279.59;5034603;28;20463;-71
2021/08/26 09:36:11;;;;;;;12.52;9.32;;;;;;;15.57;100.00;100275.25;5033445;28;20099;-71
2021/08/26 09:39:00;;;;;;;14.50;8.35;;;;;;;15.45;100.00;100282.03;5033249;28;20071;-71
2021/08/26 09:41:53;;;;;;;13.05;8.68;;;;;;;15.42;100.00;100280.53;5033352;28;20064;-71
2021/08/26 09:44:37;;;;;;;12.57;9.35;;;;;;;15.56;100.00;100273.59;5034309;28;20094;-71
2021/08/26 09:47:21;;;;;;;12.07;8.82;;;;;;;15.54;100.00;100278.31;5033950;28;20041;-71
2021/08/26 09:50:05;;;;;;;11.05;8.82;;;;;;;15.63;100.00;100269.19;5033249;28;20111;-71
2021/08/26 09:52:52;;;;;;;;;;;;;;;15.75;100.00;100272.13;5033170;28;20048;-71
2021/08/26 09:55:48;;;;;;;10.23;8.98;;;;;;;15.88;100.00;100263.50;5018849;28;19920;-71
2021/08/26 09:58:34;;;;;;;10.35;9.02;;;;;;;16.00;100.00;100254.84;5034060;28;20071;-71
2021/08/26 10:01:20;;;;;;;13.57;9.95;;;;;;;16.04;100.00;100256.16;5033481;28;20079;-71
2021/08/26 10:04:27;;;;;;;11.45;8.73;;;;;;;16.09;100.00;100253.75;5032756;28;20088;-70
2021/08/26 10:07:11;;;;;;;10.52;9.00;;;;;;;16.25;100.00;100247.41;5019021;28;20236;-71
2021/08/26 10:09:55;;;;;;;14.35;8.63;;;;;;;16.41;100.00;100253.53;5032894;28;20545;-71
2021/08/26 10:12:39;;;;;;;11.18;9.10;;;;;;;16.51;100.00;100254.13;5032541;28;20525;-71
2021/08/26 10:15:23;;;;;;;9.00;7.82;;;;;;;16.51;100.00;100254.13;5018975;28;20051;-71
2021/08/26 10:18:07;;;;;;;10.68;8.70;;;;;;;16.63;100.00;100257.19;5033042;28;20084;-71
2021/08/26 10:20:52;;;;;;;9.90;8.25;;;;;;;16.43;100.00;100248.81;5032401;28;20053;-70
2021/08/26 10:23:37;;;;;;;9.85;7.30;;;;;;;16.46;100.00;100253.00;5018458;28;20068;-71
2021/08/26 10:26:21;;;;;;;12.55;8.10;;;;;;;16.65;100.00;100249.75;5032289;28;20075;-71
2021/08/26 10:29:06;;;;;;;10.52;7.75;;;;;;;16.71;100.00;100254.44;5032629;28;20044;-71
2021/08/26 10:31:59;;;;;;;9.32;8.40;;;;;;;17.13;100.00;100255.50;5032381;28;20072;-71
2021/08/26 10:35:02;;;;;;;10.85;7.65;;;;;;;17.24;100.00;100249.63;5033179;28;20048;-71
2021/08/26 10:37:54;;;;;;;8.82;7.07;;;;;;;17.15;100.00;100247.19;5032152;28;20049;-70
2021/08/26 10:40:39;;;;;;;9.02;6.85;;;;;;;17.16;100.00;100244.34;5032246;28;20207;-71
2021/08/26 10:43:37;;;;;;;9.93;7.90;;;;;;;17.17;100.00;100240.59;5032077;28;20056;-70
2021/08/26 10:46:48;;;;;;;11.65;8.35;;;;;;;17.52;100.00;100237.16;5032359;28;20459;-71
2021/08/26 10:50:10;;;;;;;12.63;6.47;;;;;;;17.94;100.00;100236.38;5032016;28;20044;-72
2021/08/26 10:53:06;;;;;;;9.20;6.68;;;;;;;18.41;100.00;100237.47;5033145;28;20092;-71
2021/08/26 10:55:51;;;;;;;11.20;6.70;;;;;;;18.81;100.00;100232.19;5031883;28;20139;-71
2021/08/26 10:58:37;;;;;;;7.82;5.65;;;;;;;19.43;100.00;100224.88;5031990;28;20048;-69
2021/08/26 11:01:27;;;;;;;6.65;5.20;;;;;;;20.42;94.90;100214.06;5032078;28;20044;-71
2021/08/26 11:07:02;;;;;;;5.57;4.10;;;;;;;21.52;90.71;100211.16;5031904;28;20064;-69
2021/08/26 11:09:46;;;;;;;7.05;4.50;;;;;;;22.00;85.60;100209.63;5003991;28;20103;-70
2021/08/26 11:12:30;;;;;;;8.00;3.90;;;;;;;22.51;80.99;100207.59;5003898;28;20530;-69
2021/08/26 11:15:25;;;;;;;5.85;4.18;;;;;;;23.05;80.70;100220.47;5032076;28;20577;-69
2021/08/26 11:18:29;;;;;;;4.55;3.83;;;;;;;24.19;69.75;100209.38;5018231;28;20095;-70
2021/08/26 11:21:12;;;;;;;4.07;3.10;;;;;;;25.02;58.01;100205.44;5032073;28;20049;-70
2021/08/26 11:23:56;;;;;;;;;;;;;;;24.47;58.05;100204.09;5032051;28;20423;-71
2021/08/26 11:26:42;;;;;;;6.88;3.30;;;;;;;24.79;59.62;100202.75;5032247;28;20325;-70
2021/08/26 11:29:33;;;;;;;3.60;2.70;;;;;;;24.18;58.43;100196.84;5019042;28;20518;-70
2021/08/26 11:32:19;;;;;;;5.22;3.33;;;;;;;24.58;57.71;100197.84;5035792;28;20048;-70
2021/08/26 11:35:03;;;;;;;4.45;3.13;;;;;;;26.58;51.33;100196.56;5035524;28;20064;-69
2021/08/26 11:37:47;;;;;;;;;;;;;;;27.28;49.28;100193.78;5036953;28;20541;-68
2021/08/26 11:40:31;;;;;;;4.75;2.90;;;;;;;26.12;51.23;100189.47;5035427;28;19919;-70
2021/08/26 11:43:15;;;;;;;4.65;3.13;;;;;;;24.54;54.21;100196.66;5035577;28;20048;-69
2021/08/26 11:45:59;;;;;;;4.43;3.33;;;;;;;24.14;57.64;100195.63;5035391;28;20056;-69
2021/08/26 11:48:52;;;;;;;4.50;2.90;;;;;;;24.73;54.79;100190.03;5021718;28;20056;-70
2021/08/26 11:51:36;;;;;;;4.10;3.28;;;;;;;24.43;57.77;100194.72;5035219;28;20522;-69
2021/08/26 11:54:20;;;;;;;4.70;3.60;;;;;;;23.46;59.71;100207.88;5035317;28;20079;-70
2021/08/26 11:57:06;;;;;;;4.45;3.63;;;;;;;23.99;59.81;100203.41;5021488;28;20132;-70
2021/08/26 11:59:50;;;;;;;5.03;3.78;;;;;;;23.80;61.07;100193.59;5035240;28;20148;-70
2021/08/26 12:02:36;;;;;;;;;;;;;;;23.48;60.40;100194.88;5021329;28;20479;-70
2021/08/26 12:05:21;;;;;;;4.68;3.00;;;;;;;24.75;57.30;100185.19;5034806;28;19963;-70
2021/08/26 12:08:06;;;;;;;4.25;3.30;;;;;;;24.12;56.01;100197.75;5034866;28;20075;-70
2021/08/26 12:10:51;;;;;;;4.93;3.40;;;;;;;25.66;57.40;100183.34;5035339;28;20507;-70
2021/08/26 12:13:36;;;;;;;4.60;3.40;;;;;;;27.74;47.17;100182.31;5035804;28;20136;-70
2021/08/26 12:16:26;;;;;;;3.78;3.20;;;;;;;28.74;43.52;100183.28;5034878;28;20455;-71
2021/08/26 12:19:10;;;;;;;3.90;3.10;;;;;;;29.41;44.13;100184.25;5034681;28;20048;-70
2021/08/26 12:21:55;;;;;;;4.20;3.35;;;;;;;28.06;43.78;100191.47;5021234;28;20103;-70
2021/08/26 12:24:49;;;;;;;4.15;3.15;;;;;;;29.81;43.70;100180.81;5020543;28;20052;-70
2021/08/26 12:27:33;;;;;;;4.13;3.72;;;;;;;28.73;45.33;100181.63;5034515;28;20044;-70
2021/08/26 12:30:35;;;;;;;5.72;3.97;;;;;;;27.86;46.15;100177.56;5034678;28;20503;-70
2021/08/26 12:33:20;;;;;;;5.18;3.97;;;;;;;27.11;48.68;100181.22;5034415;28;20087;-71
2021/08/26 12:36:05;;;;;;;4.97;4.05;;;;;;;26.40;51.35;100186.66;5034284;28;20135;-70
2021/08/26 12:38:48;;;;;;;;;;;;;;;24.78;54.17;100187.41;5035710;28;20049;-70
2021/08/26 12:41:32;;;;;;;3.80;3.45;;;;;;;25.07;55.40;100176.38;5033880;28;19952;-69
2021/08/26 12:44:26;;;;;;;;;;;;;;;25.92;51.76;100169.97;5034613;28;20095;-70